sensor_id;sensor_type;location;lat;lon;timestamp;temperature;humidity
18281;DHT22;9266;51.132;17.062;2023-02-11T00:02:23;1.90;1.00
18281;DHT22;9266;51.132;17.062;2023-02-11T00:04:54;1.60;1.00
18281;DHT22;9266;51.132;17.062;2023-02-11T00:07:21;1.90;1.00
18281;DHT22;9266;51.132;17.062;2023-02-11T00:12:16;2.20;1.00
18281;DHT22;9266;51.132;17.062;2023-02-11T00:24:35;1.70;1.00
18281;DHT22;9266;51.132;17.062;2023-02-11T00:29:30;1.60;1.00
18281;DHT22;9266;51.132;17.062;2023-02-11T00:36:57;1.40;1.00
18281;DHT22;9266;51.132;17.062;2023-02-11T00:39:24;1.70;1.00
18281;DHT22;9266;51.132;17.062;2023-02-11T00:46:47;1.50;1.00
18281;DHT22;9266;51.132;17.062;2023-02-11T00:49:15;1.50;1.00
18281;DHT22;9266;51.132;17.062;2023-02-11T00:54:09;1.50;1.00
18281;DHT22;9266;51.132;17.062;2023-02-11T00:56:36;1.50;1.00
18281;DHT22;9266;51.132;17.062;2023-02-11T00:59:03;4.20;1.00
18281;DHT22;9266;51.132;17.062;2023-02-11T01:01:30;1.50;1.00
18281;DHT22;9266;51.132;17.062;2023-02-11T01:03:58;1.50;1.00
18281;DHT22;9266;51.132;17.062;2023-02-11T01:11:21;1.30;17.80
18281;DHT22;9266;51.132;17.062;2023-02-11T01:13:49;1.20;99.90
18281;DHT22;9266;51.132;17.062;2023-02-11T01:16:17;1.20;99.90
18281;DHT22;9266;51.132;17.062;2023-02-11T01:18:44;1.20;99.90
18281;DHT22;9266;51.132;17.062;2023-02-11T01:21:13;0.90;1.00
18281;DHT22;9266;51.132;17.062;2023-02-11T01:23:41;0.80;1.00
18281;DHT22;9266;51.132;17.062;2023-02-11T01:28:35;0.80;99.90
18281;DHT22;9266;51.132;17.062;2023-02-11T01:31:03;0.80;1.00
18281;DHT22;9266;51.132;17.062;2023-02-11T01:36:00;1.00;1.00
18281;DHT22;9266;51.132;17.062;2023-02-11T01:38:29;1.10;99.90
18281;DHT22;9266;51.132;17.062;2023-02-11T01:40:58;1.30;1.00
18281;DHT22;9266;51.132;17.062;2023-02-11T01:43:26;1.10;99.90
18281;DHT22;9266;51.132;17.062;2023-02-11T01:45:59;1.40;99.10
18281;DHT22;9266;51.132;17.062;2023-02-11T01:48:29;1.50;1.00
18281;DHT22;9266;51.132;17.062;2023-02-11T01:51:02;1.50;99.90
18281;DHT22;9266;51.132;17.062;2023-02-11T01:53:32;1.50;99.90
18281;DHT22;9266;51.132;17.062;2023-02-11T01:56:18;1.60;1.00
18281;DHT22;9266;51.132;17.062;2023-02-11T01:59:06;1.60;1.00
18281;DHT22;9266;51.132;17.062;2023-02-11T02:01:37;1.70;1.00
18281;DHT22;9266;51.132;17.062;2023-02-11T02:04:07;1.70;1.00
18281;DHT22;9266;51.132;17.062;2023-02-11T02:06:39;1.90;1.00
18281;DHT22;9266;51.132;17.062;2023-02-11T02:14:07;2.20;99.90
18281;DHT22;9266;51.132;17.062;2023-02-11T02:16:36;2.10;99.90
18281;DHT22;9266;51.132;17.062;2023-02-11T02:26:11;2.10;99.90
18281;DHT22;9266;51.132;17.062;2023-02-11T02:29:10;2.10;99.90
18281;DHT22;9266;51.132;17.062;2023-02-11T02:32:12;-0.20;99.90
18281;DHT22;9266;51.132;17.062;2023-02-11T02:34:46;2.20;99.90
18281;DHT22;9266;51.132;17.062;2023-02-11T02:37:18;2.10;96.90
18281;DHT22;9266;51.132;17.062;2023-02-11T02:39:47;2.20;66.40
18281;DHT22;9266;51.132;17.062;2023-02-11T02:42:16;2.30;39.80
18281;DHT22;9266;51.132;17.062;2023-02-11T02:44:47;2.30;4.50
18281;DHT22;9266;51.132;17.062;2023-02-11T02:47:16;2.40;1.00
18281;DHT22;9266;51.132;17.062;2023-02-11T02:49:43;2.20;1.00
18281;DHT22;9266;51.132;17.062;2023-02-11T02:52:17;2.30;1.00
18281;DHT22;9266;51.132;17.062;2023-02-11T02:55:19;2.40;1.00
18281;DHT22;9266;51.132;17.062;2023-02-11T02:58:03;2.30;1.00
18281;DHT22;9266;51.132;17.062;2023-02-11T03:00:36;2.40;1.00
18281;DHT22;9266;51.132;17.062;2023-02-11T03:03:17;2.30;1.00
18281;DHT22;9266;51.132;17.062;2023-02-11T03:05:51;2.30;1.00
18281;DHT22;9266;51.132;17.062;2023-02-11T03:08:24;2.20;1.00
18281;DHT22;9266;51.132;17.062;2023-02-11T03:10:54;2.30;1.00
18281;DHT22;9266;51.132;17.062;2023-02-11T03:13:25;2.20;1.00
18281;DHT22;9266;51.132;17.062;2023-02-11T03:15:56;2.20;1.00
18281;DHT22;9266;51.132;17.062;2023-02-11T03:18:26;2.40;1.00
18281;DHT22;9266;51.132;17.062;2023-02-11T03:20:56;2.20;1.00
18281;DHT22;9266;51.132;17.062;2023-02-11T03:23:28;2.20;1.00
18281;DHT22;9266;51.132;17.062;2023-02-11T03:25:58;2.20;1.00
18281;DHT22;9266;51.132;17.062;2023-02-11T03:28:29;2.20;1.00
18281;DHT22;9266;51.132;17.062;2023-02-11T03:31:07;2.20;1.00
18281;DHT22;9266;51.132;17.062;2023-02-11T03:33:41;2.20;1.00
18281;DHT22;9266;51.132;17.062;2023-02-11T03:36:18;2.20;1.00
18281;DHT22;9266;51.132;17.062;2023-02-11T03:38:48;2.30;1.00
18281;DHT22;9266;51.132;17.062;2023-02-11T03:41:19;2.30;1.00
18281;DHT22;9266;51.132;17.062;2023-02-11T03:43:49;2.30;1.00
18281;DHT22;9266;51.132;17.062;2023-02-11T03:46:20;2.30;1.00
18281;DHT22;9266;51.132;17.062;2023-02-11T03:48:52;2.30;1.00
18281;DHT22;9266;51.132;17.062;2023-02-11T03:51:22;2.40;1.00
18281;DHT22;9266;51.132;17.062;2023-02-11T03:53:51;2.30;1.00
18281;DHT22;9266;51.132;17.062;2023-02-11T03:56:23;2.30;1.00
18281;DHT22;9266;51.132;17.062;2023-02-11T03:58:52;2.40;1.00
18281;DHT22;9266;51.132;17.062;2023-02-11T04:06:15;2.40;1.00
18281;DHT22;9266;51.132;17.062;2023-02-11T04:18:31;2.20;99.90
18281;DHT22;9266;51.132;17.062;2023-02-11T04:25:54;1.90;1.00
18281;DHT22;9266;51.132;17.062;2023-02-11T04:35:43;1.50;1.00
18281;DHT22;9266;51.132;17.062;2023-02-11T04:38:11;0.30;1.00
18281;DHT22;9266;51.132;17.062;2023-02-11T04:40:39;2.20;1.00
18281;DHT22;9266;51.132;17.062;2023-02-11T04:45:34;2.00;1.00
18281;DHT22;9266;51.132;17.062;2023-02-11T04:50:28;2.30;1.00
18281;DHT22;9266;51.132;17.062;2023-02-11T04:57:51;2.30;1.00
18281;DHT22;9266;51.132;17.062;2023-02-11T05:00:20;2.30;1.00
18281;DHT22;9266;51.132;17.062;2023-02-11T05:12:36;2.40;1.00
18281;DHT22;9266;51.132;17.062;2023-02-11T05:15:05;2.40;1.00
18281;DHT22;9266;51.132;17.062;2023-02-11T05:20:00;2.60;1.00
18281;DHT22;9266;51.132;17.062;2023-02-11T05:32:17;2.50;1.00
18281;DHT22;9266;51.132;17.062;2023-02-11T05:37:12;2.60;1.00
18281;DHT22;9266;51.132;17.062;2023-02-11T05:42:06;2.40;1.60
18281;DHT22;9266;51.132;17.062;2023-02-11T05:47:00;2.70;1.00
18281;DHT22;9266;51.132;17.062;2023-02-11T05:49:29;2.50;99.90
18281;DHT22;9266;51.132;17.062;2023-02-11T05:56:50;2.60;99.90
18281;DHT22;9266;51.132;17.062;2023-02-11T05:59:18;2.50;1.00
18281;DHT22;9266;51.132;17.062;2023-02-11T06:06:41;2.80;1.00
18281;DHT22;9266;51.132;17.062;2023-02-11T06:09:08;2.70;1.00
18281;DHT22;9266;51.132;17.062;2023-02-11T06:11:37;2.70;1.00
18281;DHT22;9266;51.132;17.062;2023-02-11T06:16:31;2.70;1.00
18281;DHT22;9266;51.132;17.062;2023-02-11T06:23:54;2.80;1.00
18281;DHT22;9266;51.132;17.062;2023-02-11T06:26:22;2.50;9.20
18281;DHT22;9266;51.132;17.062;2023-02-11T06:36:13;2.90;1.00
18281;DHT22;9266;51.132;17.062;2023-02-11T06:41:10;2.90;1.00
18281;DHT22;9266;51.132;17.062;2023-02-11T06:43:38;3.00;1.00
18281;DHT22;9266;51.132;17.062;2023-02-11T06:46:06;2.90;1.00
18281;DHT22;9266;51.132;17.062;2023-02-11T06:48:34;2.80;1.00
18281;DHT22;9266;51.132;17.062;2023-02-11T06:51:01;3.00;1.00
18281;DHT22;9266;51.132;17.062;2023-02-11T06:53:29;2.90;1.00
18281;DHT22;9266;51.132;17.062;2023-02-11T06:56:02;2.90;1.00
18281;DHT22;9266;51.132;17.062;2023-02-11T06:58:31;2.80;1.00
18281;DHT22;9266;51.132;17.062;2023-02-11T07:05:53;2.90;1.00
18281;DHT22;9266;51.132;17.062;2023-02-11T07:08:20;3.00;1.00
18281;DHT22;9266;51.132;17.062;2023-02-11T07:15:43;3.20;1.00
18281;DHT22;9266;51.132;17.062;2023-02-11T07:18:10;3.30;1.00
18281;DHT22;9266;51.132;17.062;2023-02-11T07:23:05;3.30;1.00
18281;DHT22;9266;51.132;17.062;2023-02-11T07:25:32;3.40;1.00
18281;DHT22;9266;51.132;17.062;2023-02-11T07:27:59;3.40;1.00
18281;DHT22;9266;51.132;17.062;2023-02-11T07:30:26;3.40;1.00
18281;DHT22;9266;51.132;17.062;2023-02-11T07:32:55;3.50;1.00
18281;DHT22;9266;51.132;17.062;2023-02-11T07:37:51;3.80;1.00
18281;DHT22;9266;51.132;17.062;2023-02-11T07:40:18;3.80;1.00
18281;DHT22;9266;51.132;17.062;2023-02-11T07:45:12;3.80;1.00
18281;DHT22;9266;51.132;17.062;2023-02-11T07:47:40;4.10;1.00
18281;DHT22;9266;51.132;17.062;2023-02-11T07:50:09;3.90;1.00
18281;DHT22;9266;51.132;17.062;2023-02-11T07:55:05;4.30;1.00
18281;DHT22;9266;51.132;17.062;2023-02-11T08:00:01;4.00;1.00
18281;DHT22;9266;51.132;17.062;2023-02-11T08:02:28;3.70;1.00
18281;DHT22;9266;51.132;17.062;2023-02-11T08:09:53;4.40;1.00
18281;DHT22;9266;51.132;17.062;2023-02-11T08:19:42;4.30;99.90
18281;DHT22;9266;51.132;17.062;2023-02-11T08:24:38;4.50;1.00
18281;DHT22;9266;51.132;17.062;2023-02-11T08:29:32;5.00;1.00
18281;DHT22;9266;51.132;17.062;2023-02-11T08:39:22;4.60;1.00
18281;DHT22;9266;51.132;17.062;2023-02-11T08:41:52;4.70;8.40
18281;DHT22;9266;51.132;17.062;2023-02-11T08:44:22;4.80;1.00
18281;DHT22;9266;51.132;17.062;2023-02-11T08:46:49;4.80;1.00
18281;DHT22;9266;51.132;17.062;2023-02-11T08:49:17;4.90;1.00
18281;DHT22;9266;51.132;17.062;2023-02-11T08:51:45;5.60;1.00
18281;DHT22;9266;51.132;17.062;2023-02-11T08:59:12;5.10;1.00
18281;DHT22;9266;51.132;17.062;2023-02-11T09:01:39;4.90;1.00
18281;DHT22;9266;51.132;17.062;2023-02-11T09:06:34;5.30;99.90
18281;DHT22;9266;51.132;17.062;2023-02-11T09:09:01;5.20;1.00
18281;DHT22;9266;51.132;17.062;2023-02-11T09:11:30;5.40;1.00
18281;DHT22;9266;51.132;17.062;2023-02-11T09:13:58;5.50;1.00
18281;DHT22;9266;51.132;17.062;2023-02-11T09:16:31;5.60;1.00
18281;DHT22;9266;51.132;17.062;2023-02-11T09:19:00;5.70;99.90
18281;DHT22;9266;51.132;17.062;2023-02-11T09:21:28;5.70;99.90
18281;DHT22;9266;51.132;17.062;2023-02-11T09:23:55;5.70;99.90
18281;DHT22;9266;51.132;17.062;2023-02-11T09:26:25;5.70;99.90
18281;DHT22;9266;51.132;17.062;2023-02-11T09:28:53;5.80;99.90
18281;DHT22;9266;51.132;17.062;2023-02-11T09:31:21;5.90;1.00
18281;DHT22;9266;51.132;17.062;2023-02-11T09:33:53;6.20;1.00
18281;DHT22;9266;51.132;17.062;2023-02-11T09:36:22;5.70;1.00
18281;DHT22;9266;51.132;17.062;2023-02-11T09:38:49;5.90;1.00
18281;DHT22;9266;51.132;17.062;2023-02-11T09:41:30;6.00;1.00
18281;DHT22;9266;51.132;17.062;2023-02-11T09:44:01;6.00;1.00
18281;DHT22;9266;51.132;17.062;2023-02-11T09:46:31;6.10;1.00
18281;DHT22;9266;51.132;17.062;2023-02-11T09:49:01;6.10;1.00
18281;DHT22;9266;51.132;17.062;2023-02-11T09:51:35;6.00;1.00
18281;DHT22;9266;51.132;17.062;2023-02-11T09:54:11;6.40;99.90
18281;DHT22;9266;51.132;17.062;2023-02-11T09:59:09;6.60;1.00
18281;DHT22;9266;51.132;17.062;2023-02-11T10:01:43;6.60;1.00
18281;DHT22;9266;51.132;17.062;2023-02-11T10:04:19;6.70;35.00
18281;DHT22;9266;51.132;17.062;2023-02-11T10:06:52;6.40;67.60
18281;DHT22;9266;51.132;17.062;2023-02-11T10:12:20;6.30;99.90
18281;DHT22;9266;51.132;17.062;2023-02-11T10:15:01;6.30;99.90
18281;DHT22;9266;51.132;17.062;2023-02-11T10:17:37;6.20;99.90
18281;DHT22;9266;51.132;17.062;2023-02-11T10:20:28;6.30;99.90
18281;DHT22;9266;51.132;17.062;2023-02-11T10:22:59;6.30;1.00
18281;DHT22;9266;51.132;17.062;2023-02-11T10:25:33;6.30;1.00
18281;DHT22;9266;51.132;17.062;2023-02-11T10:28:10;6.20;1.00
18281;DHT22;9266;51.132;17.062;2023-02-11T10:30:41;6.50;1.00
18281;DHT22;9266;51.132;17.062;2023-02-11T10:33:14;6.50;1.00
18281;DHT22;9266;51.132;17.062;2023-02-11T10:35:47;6.50;1.00
18281;DHT22;9266;51.132;17.062;2023-02-11T10:40:42;6.40;99.90
18281;DHT22;9266;51.132;17.062;2023-02-11T10:43:12;6.70;99.90
18281;DHT22;9266;51.132;17.062;2023-02-11T10:45:42;6.50;99.90
18281;DHT22;9266;51.132;17.062;2023-02-11T10:48:37;6.50;1.00
18281;DHT22;9266;51.132;17.062;2023-02-11T10:51:16;6.40;1.00
18281;DHT22;9266;51.132;17.062;2023-02-11T10:53:44;6.40;1.00
18281;DHT22;9266;51.132;17.062;2023-02-11T10:56:18;6.50;1.00
18281;DHT22;9266;51.132;17.062;2023-02-11T10:58:54;6.50;1.00
18281;DHT22;9266;51.132;17.062;2023-02-11T11:01:35;6.50;1.00
18281;DHT22;9266;51.132;17.062;2023-02-11T11:04:04;6.30;1.00
18281;DHT22;9266;51.132;17.062;2023-02-11T11:06:34;6.50;99.90
18281;DHT22;9266;51.132;17.062;2023-02-11T11:13:58;6.20;1.00
18281;DHT22;9266;51.132;17.062;2023-02-11T11:21:49;6.40;99.90
18281;DHT22;9266;51.132;17.062;2023-02-11T11:24:19;6.30;99.90
18281;DHT22;9266;51.132;17.062;2023-02-11T11:26:49;6.40;1.00
18281;DHT22;9266;51.132;17.062;2023-02-11T11:31:48;6.60;99.90
18281;DHT22;9266;51.132;17.062;2023-02-11T11:34:23;6.60;99.90
18281;DHT22;9266;51.132;17.062;2023-02-11T11:36:55;6.60;99.90
18281;DHT22;9266;51.132;17.062;2023-02-11T11:39:24;6.70;1.00
18281;DHT22;9266;51.132;17.062;2023-02-11T11:41:55;6.80;1.00
18281;DHT22;9266;51.132;17.062;2023-02-11T11:44:30;6.80;1.00
18281;DHT22;9266;51.132;17.062;2023-02-11T11:50:15;6.80;1.00
18281;DHT22;9266;51.132;17.062;2023-02-11T11:52:51;6.60;1.00
18281;DHT22;9266;51.132;17.062;2023-02-11T11:55:24;6.60;1.00
18281;DHT22;9266;51.132;17.062;2023-02-11T12:00:23;6.70;1.00
18281;DHT22;9266;51.132;17.062;2023-02-11T12:06:16;6.60;1.00
18281;DHT22;9266;51.132;17.062;2023-02-11T12:08:53;6.50;99.90
18281;DHT22;9266;51.132;17.062;2023-02-11T12:11:32;6.50;1.00
18281;DHT22;9266;51.132;17.062;2023-02-11T12:14:08;7.60;99.90
18281;DHT22;9266;51.132;17.062;2023-02-11T12:16:47;6.50;99.90
18281;DHT22;9266;51.132;17.062;2023-02-11T12:19:45;6.60;99.90
18281;DHT22;9266;51.132;17.062;2023-02-11T12:22:24;6.60;99.90
18281;DHT22;9266;51.132;17.062;2023-02-11T12:30:21;7.00;1.00
18281;DHT22;9266;51.132;17.062;2023-02-11T12:32:58;6.90;1.00
18281;DHT22;9266;51.132;17.062;2023-02-11T12:35:35;6.90;1.00
18281;DHT22;9266;51.132;17.062;2023-02-11T12:38:28;6.80;1.00
18281;DHT22;9266;51.132;17.062;2023-02-11T12:41:08;6.80;1.00
18281;DHT22;9266;51.132;17.062;2023-02-11T12:43:41;6.80;1.00
18281;DHT22;9266;51.132;17.062;2023-02-11T12:46:27;4.80;1.00
18281;DHT22;9266;51.132;17.062;2023-02-11T12:49:10;6.70;1.00
18281;DHT22;9266;51.132;17.062;2023-02-11T12:51:48;6.70;1.00
18281;DHT22;9266;51.132;17.062;2023-02-11T12:54:26;6.50;1.00
18281;DHT22;9266;51.132;17.062;2023-02-11T12:56:59;4.50;1.00
18281;DHT22;9266;51.132;17.062;2023-02-11T12:59:37;6.40;99.90
18281;DHT22;9266;51.132;17.062;2023-02-11T13:02:14;6.40;99.90
18281;DHT22;9266;51.132;17.062;2023-02-11T13:04:47;6.60;99.90
18281;DHT22;9266;51.132;17.062;2023-02-11T13:07:18;6.60;1.00
18281;DHT22;9266;51.132;17.062;2023-02-11T13:09:50;6.60;1.00
18281;DHT22;9266;51.132;17.062;2023-02-11T13:12:21;6.50;1.00
18281;DHT22;9266;51.132;17.062;2023-02-11T13:15:11;7.40;1.00
18281;DHT22;9266;51.132;17.062;2023-02-11T13:17:45;6.60;1.00
18281;DHT22;9266;51.132;17.062;2023-02-11T13:20:22;6.60;1.00
18281;DHT22;9266;51.132;17.062;2023-02-11T13:22:57;8.40;1.00
18281;DHT22;9266;51.132;17.062;2023-02-11T13:25:32;7.00;1.00
18281;DHT22;9266;51.132;17.062;2023-02-11T13:28:08;6.50;31.10
18281;DHT22;9266;51.132;17.062;2023-02-11T13:30:41;6.70;1.00
18281;DHT22;9266;51.132;17.062;2023-02-11T13:41:15;6.60;1.00
18281;DHT22;9266;51.132;17.062;2023-02-11T13:43:56;6.80;87.60
18281;DHT22;9266;51.132;17.062;2023-02-11T13:48:53;6.50;99.90
18281;DHT22;9266;51.132;17.062;2023-02-11T13:51:34;6.50;99.90
18281;DHT22;9266;51.132;17.062;2023-02-11T13:54:02;6.50;99.90
18281;DHT22;9266;51.132;17.062;2023-02-11T13:56:32;6.40;1.00
18281;DHT22;9266;51.132;17.062;2023-02-11T13:59:02;6.50;1.00
18281;DHT22;9266;51.132;17.062;2023-02-11T14:01:41;6.40;1.00
18281;DHT22;9266;51.132;17.062;2023-02-11T14:04:20;6.40;1.00
18281;DHT22;9266;51.132;17.062;2023-02-11T14:07:26;6.40;1.00
18281;DHT22;9266;51.132;17.062;2023-02-11T14:10:49;6.30;96.00
18281;DHT22;9266;51.132;17.062;2023-02-11T14:13:23;6.40;99.90
18281;DHT22;9266;51.132;17.062;2023-02-11T14:16:06;6.30;99.90
18281;DHT22;9266;51.132;17.062;2023-02-11T14:23:52;6.20;1.00
18281;DHT22;9266;51.132;17.062;2023-02-11T14:26:33;6.20;1.00
18281;DHT22;9266;51.132;17.062;2023-02-11T14:29:14;8.30;1.00
18281;DHT22;9266;51.132;17.062;2023-02-11T14:31:49;6.10;87.50
18281;DHT22;9266;51.132;17.062;2023-02-11T14:34:42;6.20;99.90
18281;DHT22;9266;51.132;17.062;2023-02-11T14:38:34;6.30;70.60
18281;DHT22;9266;51.132;17.062;2023-02-11T14:41:09;6.20;99.90
18281;DHT22;9266;51.132;17.062;2023-02-11T14:43:39;6.20;1.00
18281;DHT22;9266;51.132;17.062;2023-02-11T14:46:08;6.10;99.90
18281;DHT22;9266;51.132;17.062;2023-02-11T14:48:37;6.10;1.00
18281;DHT22;9266;51.132;17.062;2023-02-11T14:51:07;6.00;1.00
18281;DHT22;9266;51.132;17.062;2023-02-11T14:53:40;6.00;1.00
18281;DHT22;9266;51.132;17.062;2023-02-11T14:56:17;6.00;1.00
18281;DHT22;9266;51.132;17.062;2023-02-11T14:58:48;5.90;1.00
18281;DHT22;9266;51.132;17.062;2023-02-11T15:01:25;5.80;99.90
18281;DHT22;9266;51.132;17.062;2023-02-11T15:03:53;5.70;1.00
18281;DHT22;9266;51.132;17.062;2023-02-11T15:06:23;5.60;99.90
18281;DHT22;9266;51.132;17.062;2023-02-11T15:08:54;5.60;1.00
18281;DHT22;9266;51.132;17.062;2023-02-11T15:11:26;5.60;19.60
18281;DHT22;9266;51.132;17.062;2023-02-11T15:13:55;5.60;99.90
18281;DHT22;9266;51.132;17.062;2023-02-11T15:21:22;5.60;1.00
18281;DHT22;9266;51.132;17.062;2023-02-11T15:24:01;5.60;1.00
18281;DHT22;9266;51.132;17.062;2023-02-11T15:31:25;5.40;99.90
18281;DHT22;9266;51.132;17.062;2023-02-11T15:33:53;5.80;99.90
18281;DHT22;9266;51.132;17.062;2023-02-11T15:36:23;5.40;99.90
18281;DHT22;9266;51.132;17.062;2023-02-11T15:39:27;5.70;99.90
18281;DHT22;9266;51.132;17.062;2023-02-11T15:51:51;5.40;99.90
18281;DHT22;9266;51.132;17.062;2023-02-11T15:54:23;5.70;99.90
18281;DHT22;9266;51.132;17.062;2023-02-11T15:56:53;5.30;99.90
18281;DHT22;9266;51.132;17.062;2023-02-11T15:59:27;5.30;99.90
18281;DHT22;9266;51.132;17.062;2023-02-11T16:01:56;5.10;99.90
18281;DHT22;9266;51.132;17.062;2023-02-11T16:04:25;5.00;99.90
18281;DHT22;9266;51.132;17.062;2023-02-11T16:06:54;5.20;99.90
18281;DHT22;9266;51.132;17.062;2023-02-11T16:09:29;5.40;99.90
18281;DHT22;9266;51.132;17.062;2023-02-11T16:11:59;5.30;99.90
18281;DHT22;9266;51.132;17.062;2023-02-11T16:14:32;5.30;99.90
18281;DHT22;9266;51.132;17.062;2023-02-11T16:17:03;5.20;99.90
18281;DHT22;9266;51.132;17.062;2023-02-11T16:19:32;5.40;99.90
18281;DHT22;9266;51.132;17.062;2023-02-11T16:22:05;5.30;99.90
18281;DHT22;9266;51.132;17.062;2023-02-11T16:24:36;5.20;99.90
18281;DHT22;9266;51.132;17.062;2023-02-11T16:27:13;5.40;99.90
18281;DHT22;9266;51.132;17.062;2023-02-11T16:34:43;5.50;99.90
18281;DHT22;9266;51.132;17.062;2023-02-11T16:37:10;5.50;99.90
18281;DHT22;9266;51.132;17.062;2023-02-11T16:39:39;5.50;99.90
18281;DHT22;9266;51.132;17.062;2023-02-11T16:49:31;5.50;99.90
18281;DHT22;9266;51.132;17.062;2023-02-11T17:14:15;5.70;99.90
18281;DHT22;9266;51.132;17.062;2023-02-11T17:21:40;5.70;99.90
18281;DHT22;9266;51.132;17.062;2023-02-11T17:29:04;5.70;99.90
18281;DHT22;9266;51.132;17.062;2023-02-11T17:38:58;5.50;99.90
18281;DHT22;9266;51.132;17.062;2023-02-11T17:43:52;5.70;99.90
18281;DHT22;9266;51.132;17.062;2023-02-11T17:46:19;5.50;99.90
18281;DHT22;9266;51.132;17.062;2023-02-11T17:48:48;5.60;99.90
18281;DHT22;9266;51.132;17.062;2023-02-11T17:51:22;5.50;99.90
18281;DHT22;9266;51.132;17.062;2023-02-11T17:58:45;5.60;99.90
18281;DHT22;9266;51.132;17.062;2023-02-11T18:03:39;5.60;99.90
18281;DHT22;9266;51.132;17.062;2023-02-11T18:06:08;5.60;99.90
18281;DHT22;9266;51.132;17.062;2023-02-11T18:16:01;5.60;99.90
18281;DHT22;9266;51.132;17.062;2023-02-11T18:18:29;5.60;99.90
18281;DHT22;9266;51.132;17.062;2023-02-11T18:43:07;5.70;99.90
18281;DHT22;9266;51.132;17.062;2023-02-11T18:50:30;5.60;99.90
18281;DHT22;9266;51.132;17.062;2023-02-11T18:55:24;5.20;99.90
18281;DHT22;9266;51.132;17.062;2023-02-11T18:57:53;5.50;99.90
18281;DHT22;9266;51.132;17.062;2023-02-11T19:00:20;5.50;99.90
18281;DHT22;9266;51.132;17.062;2023-02-11T19:05:17;5.50;99.90
18281;DHT22;9266;51.132;17.062;2023-02-11T19:12:39;5.30;99.90
18281;DHT22;9266;51.132;17.062;2023-02-11T19:17:35;6.00;99.90
18281;DHT22;9266;51.132;17.062;2023-02-11T19:20:03;5.60;99.90
18281;DHT22;9266;51.132;17.062;2023-02-11T19:22:31;5.50;99.90
18281;DHT22;9266;51.132;17.062;2023-02-11T19:32:21;5.90;99.90
18281;DHT22;9266;51.132;17.062;2023-02-11T19:37:16;5.50;99.90
18281;DHT22;9266;51.132;17.062;2023-02-11T19:42:11;5.50;99.90
18281;DHT22;9266;51.132;17.062;2023-02-11T19:49:36;5.60;99.90
18281;DHT22;9266;51.132;17.062;2023-02-11T19:59:25;5.60;99.90
18281;DHT22;9266;51.132;17.062;2023-02-11T20:06:50;5.60;99.90
18281;DHT22;9266;51.132;17.062;2023-02-11T20:14:14;5.50;99.90
18281;DHT22;9266;51.132;17.062;2023-02-11T20:24:10;6.70;99.90
18281;DHT22;9266;51.132;17.062;2023-02-11T20:29:06;5.70;99.90
18281;DHT22;9266;51.132;17.062;2023-02-11T20:31:33;5.70;99.90
18281;DHT22;9266;51.132;17.062;2023-02-11T20:34:01;5.70;99.90
18281;DHT22;9266;51.132;17.062;2023-02-11T20:36:29;6.40;99.90
18281;DHT22;9266;51.132;17.062;2023-02-11T20:38:57;5.70;99.90
18281;DHT22;9266;51.132;17.062;2023-02-11T20:41:28;5.80;99.90
18281;DHT22;9266;51.132;17.062;2023-02-11T20:43:59;5.80;99.90
18281;DHT22;9266;51.132;17.062;2023-02-11T20:46:28;7.00;99.90
18281;DHT22;9266;51.132;17.062;2023-02-11T20:48:58;5.90;99.90
18281;DHT22;9266;51.132;17.062;2023-02-11T20:51:26;5.80;99.90
18281;DHT22;9266;51.132;17.062;2023-02-11T20:53:54;5.90;99.90
18281;DHT22;9266;51.132;17.062;2023-02-11T20:56:23;5.90;99.90
18281;DHT22;9266;51.132;17.062;2023-02-11T20:58:52;5.80;99.90
18281;DHT22;9266;51.132;17.062;2023-02-11T21:01:22;5.80;99.90
18281;DHT22;9266;51.132;17.062;2023-02-11T21:03:51;5.80;99.90
18281;DHT22;9266;51.132;17.062;2023-02-11T21:06:20;5.90;99.90
18281;DHT22;9266;51.132;17.062;2023-02-11T21:16:14;5.90;99.90
18281;DHT22;9266;51.132;17.062;2023-02-11T21:26:05;6.00;99.90
18281;DHT22;9266;51.132;17.062;2023-02-11T21:28:32;6.00;99.90
18281;DHT22;9266;51.132;17.062;2023-02-11T21:35:59;6.10;99.90
18281;DHT22;9266;51.132;17.062;2023-02-11T21:38:26;6.00;99.90
18281;DHT22;9266;51.132;17.062;2023-02-11T21:58:10;6.10;99.90
18281;DHT22;9266;51.132;17.062;2023-02-11T22:00:38;5.80;99.90
18281;DHT22;9266;51.132;17.062;2023-02-11T22:03:05;5.40;99.90
18281;DHT22;9266;51.132;17.062;2023-02-11T22:15:23;6.10;99.90
18281;DHT22;9266;51.132;17.062;2023-02-11T22:20:18;6.20;99.90
18281;DHT22;9266;51.132;17.062;2023-02-11T22:27:41;6.30;99.90
18281;DHT22;9266;51.132;17.062;2023-02-11T22:42:27;6.20;99.90
18281;DHT22;9266;51.132;17.062;2023-02-11T22:54:43;6.50;99.90
18281;DHT22;9266;51.132;17.062;2023-02-11T23:07:01;6.20;99.90
18281;DHT22;9266;51.132;17.062;2023-02-11T23:16:51;6.10;99.90
18281;DHT22;9266;51.132;17.062;2023-02-11T23:36:39;6.20;99.90
18281;DHT22;9266;51.132;17.062;2023-02-11T23:41:34;5.80;99.90
18281;DHT22;9266;51.132;17.062;2023-02-11T23:44:01;5.80;99.90
18281;DHT22;9266;51.132;17.062;2023-02-11T23:48:55;5.80;99.90
18281;DHT22;9266;51.132;17.062;2023-02-11T23:51:24;5.90;99.90
18281;DHT22;9266;51.132;17.062;2023-02-11T23:53:51;6.10;99.90
18281;DHT22;9266;51.132;17.062;2023-02-11T23:56:22;6.00;99.90
18281;DHT22;9266;51.132;17.062;2023-02-11T23:58:51;6.10;99.90
